Isla Cristina, Spain
Current Conditions -  °F | °C
As of 2:30 AM on Thursday 27 Nov 2014 (Local Time) from LPFR Reporting Station
Few Clouds Few Clouds  
Wind Chill: 55°   Ceiling: Unl
Heat Index: 55°   Visibility: 6mi
Dew Point: 54°   Wind: 6mph
Humidity: 94%   Direction: 100°E
Pressure: 29.56"   Gusts: NA
Location:  37.2°N, 7.32°W
Report Text: LPFR 270130Z 10005KT 9999 FEW020 FEW025CB 13/12 Q1001
Loading
Personal Weather Stations






























Interactive Weather Map New forecast layout! Learn more

10-Day Weather Forecast

Advertisements
Track Severe Weather on mobile